createdAt,value
2019-05-25T00:00:29.296Z,2.23
2019-05-25T00:03:01.291Z,2.30
2019-05-25T00:05:33.230Z,2.37
2019-05-25T00:08:05.463Z,2.13
2019-05-25T00:10:37.501Z,2.30
2019-05-25T00:13:09.518Z,2.40
2019-05-25T00:15:41.485Z,2.30
2019-05-25T00:18:13.427Z,2.30
2019-05-25T00:20:45.677Z,2.40
2019-05-25T00:23:17.717Z,2.73
2019-05-25T00:25:49.747Z,2.40
2019-05-25T00:28:21.736Z,2.50
2019-05-25T00:30:53.756Z,2.87
2019-05-25T00:33:25.784Z,2.47
2019-05-25T00:35:57.938Z,2.37
2019-05-25T00:38:29.889Z,2.10
2019-05-25T00:41:01.925Z,2.10
2019-05-25T00:43:33.892Z,2.10
2019-05-25T00:46:05.875Z,2.17
2019-05-25T00:48:37.905Z,2.33
2019-05-25T00:51:09.849Z,2.47
2019-05-25T00:53:41.846Z,2.47
2019-05-25T00:56:13.850Z,2.80
2019-05-25T00:58:46.199Z,2.57
2019-05-25T01:01:18.239Z,2.60
2019-05-25T01:03:50.266Z,3.10
2019-05-25T01:06:22.196Z,2.67
2019-05-25T01:08:54.160Z,2.30
2019-05-25T01:11:26.209Z,2.70
2019-05-25T01:13:58.498Z,2.20
2019-05-25T01:16:30.477Z,2.80
2019-05-25T01:19:02.433Z,2.50
2019-05-25T01:21:34.467Z,2.80
2019-05-25T01:24:06.498Z,2.53
2019-05-25T01:26:38.503Z,2.17
2019-05-25T01:29:10.798Z,2.03
2019-05-25T01:31:42.785Z,2.43
2019-05-25T01:34:14.761Z,2.33
2019-05-25T01:36:46.991Z,2.30
2019-05-25T01:39:19.043Z,2.17
2019-05-25T01:41:51.179Z,2.30
2019-05-25T01:44:23.184Z,2.17
2019-05-25T01:46:55.233Z,2.30
2019-05-25T01:49:27.176Z,2.50
2019-05-25T01:51:59.223Z,1.93
2019-05-25T01:54:31.363Z,2.50
2019-05-25T01:57:03.442Z,2.30
2019-05-25T01:59:35.620Z,2.83
2019-05-25T02:02:07.585Z,2.37
2019-05-25T02:04:39.680Z,2.17
2019-05-25T02:07:12.199Z,2.07
2019-05-25T02:09:44.490Z,2.23
2019-05-25T02:12:16.532Z,2.40
2019-05-25T02:14:48.582Z,2.43
2019-05-25T02:17:20.646Z,2.60
2019-05-25T02:19:52.674Z,2.50
2019-05-25T02:22:24.611Z,2.20
2019-05-25T02:24:56.683Z,2.63
2019-05-25T02:27:28.627Z,2.90
2019-05-25T02:30:00.663Z,2.93
2019-05-25T02:32:32.622Z,2.30
2019-05-25T02:35:06.465Z,2.53
2019-05-25T02:37:38.398Z,2.07
2019-05-25T02:40:10.947Z,2.53
2019-05-25T02:42:43.019Z,2.73
2019-05-25T02:45:15.075Z,2.77
2019-05-25T02:47:47.040Z,2.53
2019-05-25T02:50:20.509Z,2.43
2019-05-25T02:52:52.715Z,2.70
2019-05-25T02:55:33.614Z,3.00
2019-05-25T02:57:58.357Z,2.33
2019-05-25T03:00:35.641Z,2.70
2019-05-25T03:03:07.611Z,2.53
2019-05-25T03:05:39.819Z,2.70
2019-05-25T03:08:11.798Z,2.60
2019-05-25T03:10:44.511Z,2.37
2019-05-25T03:13:17.072Z,2.30
2019-05-25T03:15:49.040Z,2.53
2019-05-25T03:18:21.068Z,2.60
2019-05-25T03:20:53.056Z,2.70
2019-05-25T03:23:25.310Z,2.50
2019-05-25T03:25:57.420Z,2.53
2019-05-25T03:28:29.583Z,2.40
2019-05-25T03:31:01.851Z,2.77
2019-05-25T03:33:33.859Z,3.20
2019-05-25T03:36:05.913Z,2.37
2019-05-25T03:38:37.859Z,2.90
2019-05-25T03:41:09.818Z,2.47
2019-05-25T03:43:42.417Z,3.33
2019-05-25T03:46:14.562Z,2.73
2019-05-25T03:48:46.574Z,2.50
2019-05-25T03:51:18.518Z,2.80
2019-05-25T03:53:50.544Z,2.60
2019-05-25T03:56:22.615Z,2.90
2019-05-25T03:58:54.594Z,2.40
2019-05-25T04:01:26.680Z,3.23
2019-05-25T04:03:58.634Z,2.43
2019-05-25T04:06:30.652Z,2.73
2019-05-25T04:09:02.634Z,2.80
2019-05-25T04:11:34.727Z,3.13
2019-05-25T04:14:06.770Z,3.20
2019-05-25T04:16:38.818Z,3.20
2019-05-25T04:19:10.812Z,2.80
2019-05-25T04:21:42.819Z,2.77
2019-05-25T04:24:17.704Z,3.37
2019-05-25T04:26:49.764Z,3.00
2019-05-25T04:29:22.399Z,3.00
2019-05-25T04:31:55.436Z,3.30
2019-05-25T04:34:27.872Z,3.37
2019-05-25T04:36:59.985Z,3.50
2019-05-25T04:39:32.032Z,3.10
2019-05-25T04:42:04.477Z,3.33
2019-05-25T04:44:36.538Z,3.13
2019-05-25T04:47:08.519Z,3.10
2019-05-25T04:49:40.511Z,3.03
2019-05-25T04:52:12.464Z,2.97
2019-05-25T04:54:44.661Z,3.00
2019-05-25T04:57:17.004Z,3.27
2019-05-25T04:59:49.093Z,2.87
2019-05-25T05:02:21.115Z,3.03
2019-05-25T05:04:53.073Z,2.93
2019-05-25T05:07:25.109Z,3.10
2019-05-25T05:10:02.673Z,3.27
2019-05-25T05:12:31.053Z,3.07
2019-05-25T05:15:03.370Z,2.93
2019-05-25T05:17:35.393Z,2.80
2019-05-25T05:20:10.437Z,3.17
2019-05-25T05:22:42.635Z,2.73
2019-05-25T05:25:14.889Z,2.70
2019-05-25T05:27:46.937Z,2.80
2019-05-25T05:30:23.697Z,2.80
2019-05-25T05:32:55.667Z,2.60
2019-05-25T05:35:28.230Z,3.13
2019-05-25T05:38:03.495Z,2.90
2019-05-25T05:40:37.423Z,2.93
2019-05-25T05:43:11.581Z,2.90
2019-05-25T05:45:46.827Z,2.60
2019-05-25T05:48:23.004Z,3.20
2019-05-25T05:50:58.597Z,2.50
2019-05-25T05:53:31.422Z,3.00
2019-05-25T05:56:03.764Z,2.97
2019-05-25T05:58:35.822Z,2.87
2019-05-25T06:01:07.904Z,2.90
2019-05-25T06:03:39.882Z,2.97
2019-05-25T06:06:12.104Z,3.00
2019-05-25T06:08:44.131Z,2.57
2019-05-25T06:11:16.173Z,2.90
2019-05-25T06:13:48.489Z,2.93
2019-05-25T06:16:20.527Z,2.87
2019-05-25T06:18:52.611Z,2.40
2019-05-25T06:21:24.636Z,2.90
2019-05-25T06:23:56.928Z,2.87
2019-05-25T06:26:29.114Z,3.03
2019-05-25T06:29:01.085Z,2.30
2019-05-25T06:31:33.281Z,3.13
2019-05-25T06:34:05.399Z,2.00
2019-05-25T06:36:37.559Z,2.47
2019-05-25T06:39:10.117Z,2.43
2019-05-25T06:41:42.074Z,2.30
2019-05-25T06:44:14.104Z,2.37
2019-05-25T06:46:46.347Z,2.10
2019-05-25T06:49:18.315Z,2.60
2019-05-25T06:51:50.287Z,2.40
2019-05-25T06:54:22.304Z,2.40
2019-05-25T06:56:54.296Z,2.60
2019-05-25T06:59:26.310Z,2.13
2019-05-25T07:01:58.264Z,2.47
2019-05-25T07:04:30.225Z,1.90
2019-05-25T07:07:02.257Z,2.20
2019-05-25T07:09:34.307Z,1.93
2019-05-25T07:12:06.342Z,1.93
2019-05-25T07:14:38.366Z,2.40
2019-05-25T07:17:10.359Z,2.00
2019-05-25T07:19:42.332Z,1.90
2019-05-25T07:22:14.386Z,2.00
2019-05-25T07:24:46.462Z,1.90
2019-05-25T07:27:18.526Z,2.30
2019-05-25T07:29:50.533Z,1.80
2019-05-25T07:32:22.901Z,2.17
2019-05-25T07:34:55.027Z,1.90
2019-05-25T07:37:27.212Z,1.70
2019-05-25T07:39:59.430Z,1.67
2019-05-25T07:42:31.409Z,1.97
2019-05-25T07:45:04.778Z,2.07
2019-05-25T07:47:36.964Z,2.17
2019-05-25T07:50:12.120Z,2.00
2019-05-25T07:52:44.183Z,1.90
2019-05-25T07:55:16.407Z,1.90
2019-05-25T07:57:48.362Z,2.10
2019-05-25T08:00:20.446Z,1.90
2019-05-25T08:02:52.487Z,2.13
2019-05-25T08:05:24.459Z,1.70
2019-05-25T08:07:56.488Z,1.60
2019-05-25T08:10:28.600Z,1.70
2019-05-25T08:13:00.559Z,1.90
2019-05-25T08:15:32.628Z,1.63
2019-05-25T08:18:05.374Z,2.17
2019-05-25T08:20:37.376Z,1.70
2019-05-25T08:23:09.318Z,2.00
2019-05-25T08:25:41.451Z,2.00
2019-05-25T08:28:13.692Z,1.60
2019-05-25T08:30:45.848Z,2.10
2019-05-25T08:33:18.346Z,1.60
2019-05-25T08:35:50.359Z,1.83
2019-05-25T08:38:22.421Z,1.80
2019-05-25T08:40:54.433Z,2.07
2019-05-25T08:43:26.410Z,2.10
2019-05-25T08:45:58.364Z,1.50
2019-05-25T08:48:30.340Z,1.70
2019-05-25T08:51:02.388Z,1.97
2019-05-25T08:53:41.558Z,1.40
2019-05-25T08:56:07.976Z,1.60
2019-05-25T08:58:48.497Z,1.70
2019-05-25T09:01:14.148Z,1.73
2019-05-25T09:03:46.190Z,1.60
2019-05-25T09:06:18.533Z,2.07
2019-05-25T09:08:50.495Z,1.60
2019-05-25T09:11:22.871Z,1.70
2019-05-25T09:13:55.164Z,1.77
2019-05-25T09:16:27.144Z,1.80
2019-05-25T09:18:59.173Z,1.50
2019-05-25T09:21:31.443Z,1.53
2019-05-25T09:24:03.482Z,1.53
2019-05-25T09:26:35.469Z,1.67
2019-05-25T09:29:07.418Z,1.67
2019-05-25T09:31:39.533Z,1.90
2019-05-25T09:34:11.558Z,1.97
2019-05-25T09:36:43.646Z,1.90
2019-05-25T09:39:15.674Z,1.80
2019-05-25T09:41:47.684Z,1.67
2019-05-25T09:44:19.667Z,2.00
2019-05-25T09:46:51.692Z,2.30
2019-05-25T09:49:23.679Z,1.80
2019-05-25T09:51:55.635Z,2.20
2019-05-25T09:54:27.857Z,2.17
2019-05-25T09:56:59.841Z,1.80
2019-05-25T09:59:32.079Z,2.07
2019-05-25T10:02:04.291Z,2.10
2019-05-25T10:04:36.247Z,2.07
2019-05-25T10:07:08.216Z,1.70
2019-05-25T10:09:40.413Z,1.87
2019-05-25T10:12:16.040Z,2.43
2019-05-25T10:14:46.009Z,1.77
2019-05-25T10:17:18.350Z,2.23
2019-05-25T10:19:50.298Z,2.10
2019-05-25T10:22:22.328Z,2.17
2019-05-25T10:24:54.811Z,2.03
2019-05-25T10:27:27.027Z,2.00
2019-05-25T10:29:59.322Z,1.93
2019-05-25T10:32:31.316Z,2.00
2019-05-25T10:35:04.506Z,2.27
2019-05-25T10:37:36.631Z,2.10
2019-05-25T10:40:09.528Z,1.97
2019-05-25T10:42:41.723Z,1.90
2019-05-25T10:45:14.718Z,1.90
2019-05-25T10:47:46.693Z,2.13
2019-05-25T10:50:24.164Z,1.90
2019-05-25T10:52:56.221Z,2.33
2019-05-25T10:55:28.283Z,1.93
2019-05-25T10:58:00.410Z,2.33
2019-05-25T11:00:32.386Z,1.90
2019-05-25T11:03:04.417Z,1.73
2019-05-25T11:05:36.461Z,1.80
2019-05-25T11:08:08.746Z,2.00
2019-05-25T11:10:40.772Z,2.03
2019-05-25T11:13:12.739Z,1.90
2019-05-25T11:15:45.056Z,1.73
2019-05-25T11:18:17.322Z,2.07
2019-05-25T11:20:49.274Z,1.90
2019-05-25T11:23:21.304Z,2.63
2019-05-25T11:25:53.241Z,2.30
2019-05-25T11:28:25.294Z,1.90
2019-05-25T11:30:57.250Z,1.97
2019-05-25T11:33:29.227Z,1.87
2019-05-25T11:36:01.351Z,1.80
2019-05-25T11:38:33.331Z,2.43
2019-05-25T11:41:05.689Z,2.20
2019-05-25T11:43:37.731Z,2.10
2019-05-25T11:46:09.791Z,2.00
2019-05-25T11:48:42.145Z,2.00
2019-05-25T11:51:14.114Z,2.10
2019-05-25T11:53:46.048Z,1.83
2019-05-25T11:56:18.081Z,2.27
2019-05-25T11:58:50.046Z,2.10
2019-05-25T12:01:22.392Z,2.47
2019-05-25T12:03:54.375Z,2.20
2019-05-25T12:06:26.416Z,1.97
2019-05-25T12:08:58.432Z,2.20
2019-05-25T12:11:30.449Z,2.40
2019-05-25T12:14:02.512Z,1.90
2019-05-25T12:16:34.542Z,2.10
2019-05-25T12:19:06.524Z,2.30
2019-05-25T12:21:39.027Z,1.93
2019-05-25T12:24:11.008Z,2.60
2019-05-25T12:26:43.266Z,2.10
2019-05-25T12:29:15.285Z,2.30
2019-05-25T12:31:47.320Z,2.77
2019-05-25T12:34:19.364Z,2.07
2019-05-25T12:36:51.309Z,2.10
2019-05-25T12:39:26.612Z,1.80
2019-05-25T12:41:57.071Z,2.47
2019-05-25T12:44:29.043Z,2.20
2019-05-25T12:47:01.027Z,2.00
2019-05-25T12:49:49.424Z,2.67
2019-05-25T12:52:06.647Z,2.40
2019-05-25T12:54:38.605Z,2.40
2019-05-25T12:57:10.588Z,2.07
2019-05-25T12:59:42.570Z,2.37
2019-05-25T13:02:14.920Z,2.37
2019-05-25T13:04:46.953Z,2.33
2019-05-25T13:07:19.172Z,2.33
2019-05-25T13:09:51.466Z,2.30
2019-05-25T13:12:23.468Z,2.73
2019-05-25T13:14:55.400Z,2.30
2019-05-25T13:17:27.445Z,2.10
2019-05-25T13:19:59.484Z,2.50
2019-05-25T13:22:31.736Z,2.27
2019-05-25T13:25:05.828Z,2.53
2019-05-25T13:27:37.897Z,2.47
2019-05-25T13:30:11.885Z,2.60
2019-05-25T13:32:43.832Z,2.47
2019-05-25T13:35:16.513Z,2.57
2019-05-25T13:37:48.613Z,2.73
2019-05-25T13:40:20.634Z,2.87
2019-05-25T13:42:52.616Z,2.80
2019-05-25T13:45:24.588Z,2.13
2019-05-25T13:47:56.644Z,2.23
2019-05-25T13:50:28.687Z,2.70
2019-05-25T13:53:00.907Z,2.33
2019-05-25T13:55:32.936Z,2.50
2019-05-25T13:58:05.212Z,2.50
2019-05-25T14:00:37.184Z,2.30
2019-05-25T14:03:09.235Z,2.10
2019-05-25T14:05:41.282Z,2.13
2019-05-25T14:08:13.241Z,2.10
2019-05-25T14:10:45.255Z,2.23
2019-05-25T14:13:17.304Z,2.20
2019-05-25T14:15:49.587Z,2.97
2019-05-25T14:18:21.541Z,2.33
2019-05-25T14:20:53.587Z,2.53
2019-05-25T14:23:25.595Z,2.93
2019-05-25T14:25:57.617Z,2.93
2019-05-25T14:28:29.717Z,3.10
2019-05-25T14:31:01.666Z,2.97
2019-05-25T14:33:33.634Z,2.37
2019-05-25T14:36:05.883Z,2.30
2019-05-25T14:38:37.905Z,2.57
2019-05-25T14:41:10.150Z,2.27
2019-05-25T14:43:42.423Z,2.33
2019-05-25T14:46:26.831Z,2.40
2019-05-25T14:48:48.266Z,2.23
2019-05-25T14:51:20.362Z,2.77
2019-05-25T14:53:52.321Z,2.50
2019-05-25T14:56:24.373Z,3.03
2019-05-25T14:58:56.583Z,2.53
2019-05-25T15:01:28.562Z,2.70
2019-05-25T15:04:00.646Z,2.60
2019-05-25T15:06:32.732Z,2.60
2019-05-25T15:09:06.472Z,3.03
2019-05-25T15:11:38.438Z,2.90
2019-05-25T15:14:10.541Z,3.00
2019-05-25T15:16:42.711Z,2.70
2019-05-25T15:19:14.712Z,2.57
2019-05-25T15:21:47.076Z,2.47
2019-05-25T15:24:19.392Z,2.70
2019-05-25T15:26:51.355Z,2.70
2019-05-25T15:29:23.297Z,2.53
2019-05-25T15:31:55.251Z,2.53
2019-05-25T15:34:27.260Z,2.60
2019-05-25T15:36:59.529Z,2.83
2019-05-25T15:39:31.836Z,2.83
2019-05-25T15:42:04.133Z,3.17
2019-05-25T15:44:36.156Z,3.00
2019-05-25T15:47:09.207Z,2.37
2019-05-25T15:49:41.148Z,2.53
2019-05-25T15:52:13.231Z,2.90
2019-05-25T15:54:45.330Z,2.77
2019-05-25T15:57:17.268Z,2.83
2019-05-25T15:59:49.276Z,3.20
2019-05-25T16:02:35.688Z,3.13
2019-05-25T16:04:55.158Z,3.30
2019-05-25T16:07:27.223Z,3.17
2019-05-25T16:09:59.323Z,3.40
2019-05-25T16:12:31.352Z,3.63
2019-05-25T16:15:04.328Z,3.70
2019-05-25T16:17:36.328Z,3.57
2019-05-25T16:20:08.712Z,4.00
2019-05-25T16:22:40.784Z,3.37
2019-05-25T16:25:12.809Z,3.30
2019-05-25T16:27:44.790Z,3.60
2019-05-25T16:30:17.179Z,3.43
2019-05-25T16:33:11.080Z,3.50
2019-05-25T16:35:22.831Z,3.83
2019-05-25T16:37:55.010Z,3.47
2019-05-25T16:40:27.284Z,3.87
2019-05-25T16:42:59.275Z,3.80
2019-05-25T16:45:31.886Z,3.67
2019-05-25T16:48:04.031Z,3.77
2019-05-25T16:50:36.411Z,3.50
2019-05-25T16:53:08.440Z,3.60
2019-05-25T16:55:40.481Z,3.00
2019-05-25T16:58:12.625Z,3.70
2019-05-25T17:00:44.928Z,3.77
2019-05-25T17:03:27.699Z,3.47
2019-05-25T17:05:50.915Z,3.47
2019-05-25T17:08:22.869Z,3.70
2019-05-25T17:10:54.858Z,3.70
2019-05-25T17:13:26.777Z,3.73
2019-05-25T17:15:58.724Z,3.90
2019-05-25T17:18:31.025Z,3.50
2019-05-25T17:21:03.016Z,4.10
2019-05-25T17:23:35.054Z,4.23
2019-05-25T17:26:07.147Z,3.70
2019-05-25T17:28:39.238Z,3.87
2019-05-25T17:31:11.592Z,4.40
2019-05-25T17:33:46.309Z,3.80
2019-05-25T17:36:17.286Z,3.70
2019-05-25T17:38:49.425Z,3.63
2019-05-25T17:41:21.492Z,3.63
2019-05-25T17:43:53.469Z,4.13
2019-05-25T17:46:25.518Z,4.10
2019-05-25T17:48:57.534Z,4.00
2019-05-25T17:51:29.693Z,4.20
2019-05-25T17:54:01.660Z,3.80
2019-05-25T17:56:33.718Z,3.70
2019-05-25T17:59:06.000Z,4.00
2019-05-25T18:01:38.074Z,3.60
2019-05-25T18:04:10.160Z,4.20
2019-05-25T18:06:42.107Z,3.37
2019-05-25T18:09:14.163Z,3.70
2019-05-25T18:11:46.143Z,3.73
2019-05-25T18:14:18.112Z,3.40
2019-05-25T18:16:50.306Z,3.63
2019-05-25T18:19:22.410Z,3.40
2019-05-25T18:21:54.517Z,3.90
2019-05-25T18:24:26.538Z,3.73
2019-05-25T18:26:59.214Z,4.03
2019-05-25T18:29:32.013Z,4.30
2019-05-25T18:32:04.980Z,3.50
2019-05-25T18:34:37.220Z,3.77
2019-05-25T18:37:09.239Z,4.00
2019-05-25T18:39:41.287Z,3.83
2019-05-25T18:42:13.557Z,3.73
2019-05-25T18:44:45.626Z,3.83
2019-05-25T18:47:17.673Z,3.60
2019-05-25T18:49:49.739Z,3.70
2019-05-25T18:52:21.708Z,3.67
2019-05-25T18:54:54.004Z,3.13
2019-05-25T18:57:25.976Z,3.27
2019-05-25T18:59:58.090Z,3.10
2019-05-25T19:02:30.068Z,3.53
2019-05-25T19:05:02.801Z,3.53
2019-05-25T19:07:34.850Z,3.63
2019-05-25T19:10:09.227Z,3.50
2019-05-25T19:12:41.482Z,3.77
2019-05-25T19:15:14.104Z,3.40
2019-05-25T19:17:46.169Z,3.97
2019-05-25T19:20:21.157Z,4.20
2019-05-25T19:22:52.643Z,3.50
2019-05-25T19:25:24.679Z,3.70
2019-05-25T19:27:56.781Z,3.70
2019-05-25T19:30:28.794Z,3.47
2019-05-25T19:33:00.823Z,3.07
2019-05-25T19:35:32.823Z,3.43
2019-05-25T19:38:04.834Z,3.07
2019-05-25T19:40:36.815Z,3.50
2019-05-25T19:43:09.340Z,4.20
2019-05-25T19:45:41.371Z,4.47
2019-05-25T19:48:13.507Z,4.23
2019-05-25T19:50:45.677Z,3.93
2019-05-25T19:53:17.884Z,4.60
2019-05-25T19:55:49.996Z,4.33
2019-05-25T19:58:21.964Z,4.53
2019-05-25T20:00:53.946Z,4.60
2019-05-25T20:03:25.973Z,4.47
2019-05-25T20:05:57.920Z,4.10
2019-05-25T20:08:29.898Z,4.27
2019-05-25T20:11:01.865Z,3.80
2019-05-25T20:13:33.962Z,4.20
2019-05-25T20:16:06.071Z,3.97
2019-05-25T20:18:38.107Z,3.70
2019-05-25T20:21:10.199Z,4.20
2019-05-25T20:23:42.143Z,4.13
2019-05-25T20:26:14.143Z,4.27
2019-05-25T20:28:46.265Z,3.83
2019-05-25T20:31:18.297Z,3.30
2019-05-25T20:33:50.255Z,3.37
2019-05-25T20:36:23.091Z,3.30
2019-05-25T20:38:55.064Z,3.07
2019-05-25T20:41:27.149Z,3.30
2019-05-25T20:43:59.443Z,2.73
2019-05-25T20:46:31.636Z,2.60
2019-05-25T20:49:03.841Z,2.07
2019-05-25T20:51:35.892Z,2.23
2019-05-25T20:54:11.096Z,2.90
2019-05-25T20:56:42.265Z,2.57
2019-05-25T20:59:14.288Z,2.20
2019-05-25T21:01:46.402Z,2.50
2019-05-25T21:04:18.464Z,2.20
2019-05-25T21:06:50.715Z,2.23
2019-05-25T21:09:22.695Z,1.80
2019-05-25T21:11:55.962Z,2.43
2019-05-25T21:14:28.390Z,2.07
2019-05-25T21:17:00.502Z,1.63
2019-05-25T21:19:32.574Z,2.20
2019-05-25T21:22:04.604Z,1.90
2019-05-25T21:24:36.580Z,2.13
2019-05-25T21:27:08.609Z,2.00
2019-05-25T21:29:40.645Z,1.70
2019-05-25T21:32:12.674Z,1.80
2019-05-25T21:34:44.664Z,2.00
2019-05-25T21:37:16.675Z,1.87
2019-05-25T21:39:49.498Z,2.07
2019-05-25T21:42:21.475Z,1.70
2019-05-25T21:44:53.436Z,1.83
2019-05-25T21:47:25.748Z,2.20
2019-05-25T21:49:57.731Z,2.10
2019-05-25T21:52:29.809Z,1.90
2019-05-25T21:55:02.013Z,1.60
2019-05-25T21:57:34.011Z,1.70
2019-05-25T22:00:12.444Z,2.00
2019-05-25T22:02:44.481Z,1.80
2019-05-25T22:05:17.464Z,1.93
2019-05-25T22:07:49.687Z,2.00
2019-05-25T22:10:21.779Z,1.60
2019-05-25T22:12:53.714Z,2.20
2019-05-25T22:15:25.725Z,1.60
2019-05-25T22:17:57.717Z,2.07
2019-05-25T22:20:29.804Z,2.00
2019-05-25T22:23:01.745Z,2.10
2019-05-25T22:25:33.817Z,2.13
2019-05-25T22:28:05.831Z,1.60
2019-05-25T22:30:38.175Z,1.87
2019-05-25T22:33:10.730Z,1.87
2019-05-25T22:35:43.424Z,2.20
2019-05-25T22:38:15.364Z,1.90
2019-05-25T22:40:47.403Z,2.10
2019-05-25T22:43:19.368Z,1.93
2019-05-25T22:45:51.424Z,2.00
2019-05-25T22:48:23.449Z,2.07
2019-05-25T22:50:55.668Z,2.00
2019-05-25T22:53:27.648Z,2.00
2019-05-25T22:55:59.703Z,1.87
2019-05-25T22:58:32.330Z,1.83
2019-05-25T23:01:04.361Z,1.67
2019-05-25T23:03:36.431Z,1.40
2019-05-25T23:06:08.635Z,1.90
2019-05-25T23:08:40.729Z,2.60
2019-05-25T23:11:12.741Z,2.30
2019-05-25T23:13:45.501Z,2.70
2019-05-25T23:16:17.881Z,2.87
2019-05-25T23:18:49.903Z,1.73
2019-05-25T23:21:21.859Z,2.33
2019-05-25T23:23:53.883Z,2.20
2019-05-25T23:26:25.983Z,2.17
2019-05-25T23:28:58.050Z,2.00
2019-05-25T23:31:30.110Z,2.17
2019-05-25T23:34:02.319Z,1.80
2019-05-25T23:36:34.576Z,2.27
2019-05-25T23:39:07.623Z,1.90
2019-05-25T23:41:39.753Z,1.73
2019-05-25T23:44:11.784Z,1.70
2019-05-25T23:46:43.771Z,1.70
2019-05-25T23:49:15.748Z,1.47
2019-05-25T23:51:47.742Z,2.30
2019-05-25T23:54:19.732Z,1.80
2019-05-25T23:56:51.792Z,2.20
2019-05-25T23:59:23.741Z,2.03
